createdAt,value
2019-03-28T00:02:00.234Z,11.59
2019-03-28T00:04:30.091Z,11.55
2019-03-28T00:07:00.758Z,11.60
2019-03-28T00:09:30.827Z,11.59
2019-03-28T00:12:03.749Z,11.61
2019-03-28T00:14:33.610Z,11.56
2019-03-28T00:17:03.883Z,11.52
2019-03-28T00:19:33.731Z,11.51
2019-03-28T00:22:05.760Z,11.48
2019-03-28T00:24:58.065Z,11.44
2019-03-28T00:27:27.866Z,11.41
2019-03-28T00:29:57.800Z,11.43
2019-03-28T00:32:28.026Z,11.37
2019-03-28T00:34:57.959Z,11.31
2019-03-28T00:37:27.779Z,11.34
2019-03-28T00:39:57.949Z,11.33
2019-03-28T00:42:27.784Z,11.30
2019-03-28T00:44:59.534Z,11.28
2019-03-28T00:47:29.486Z,11.14
2019-03-28T00:49:59.304Z,11.15
2019-03-28T00:52:29.349Z,11.15
2019-03-28T00:54:59.145Z,11.12
2019-03-28T00:57:28.963Z,11.18
2019-03-28T00:59:58.765Z,11.10
2019-03-28T01:02:28.533Z,11.02
2019-03-28T01:04:58.604Z,10.88
2019-03-28T01:07:28.409Z,10.75
2019-03-28T01:09:59.163Z,10.87
2019-03-28T01:12:29.266Z,10.89
2019-03-28T01:14:59.241Z,10.92
2019-03-28T01:17:28.992Z,10.82
2019-03-28T01:19:59.096Z,10.87
2019-03-28T01:22:28.860Z,10.87
2019-03-28T01:24:58.624Z,10.85
2019-03-28T01:27:28.701Z,10.80
2019-03-28T01:29:58.486Z,10.75
2019-03-28T01:32:28.447Z,10.69
2019-03-28T01:34:58.515Z,10.70
2019-03-28T01:37:29.183Z,10.56
2019-03-28T01:39:59.007Z,10.55
2019-03-28T01:42:29.125Z,10.40
2019-03-28T01:44:58.878Z,10.44
2019-03-28T01:47:28.733Z,10.38
2019-03-28T01:49:58.817Z,10.38
2019-03-28T01:52:28.585Z,10.40
2019-03-28T01:54:58.345Z,10.37
2019-03-28T01:57:28.456Z,10.40
2019-03-28T01:59:58.237Z,10.31
2019-03-28T02:02:27.977Z,10.26
2019-03-28T02:04:58.092Z,10.29
2019-03-28T02:07:27.889Z,10.27
2019-03-28T02:09:58.171Z,10.25
2019-03-28T02:12:30.137Z,10.16
2019-03-28T02:14:59.895Z,10.25
2019-03-28T02:17:29.676Z,10.20
2019-03-28T02:19:59.773Z,10.19
2019-03-28T02:22:29.558Z,10.05
2019-03-28T02:24:59.306Z,10.00
2019-03-28T02:27:30.392Z,10.14
2019-03-28T02:30:00.527Z,10.13
2019-03-28T02:32:30.344Z,10.18
2019-03-28T02:35:00.632Z,10.03
2019-03-28T02:37:30.405Z,10.01
2019-03-28T02:40:00.493Z,9.94
2019-03-28T02:42:30.610Z,9.89
2019-03-28T02:45:00.699Z,10.00
2019-03-28T02:47:30.398Z,10.04
2019-03-28T02:50:00.562Z,10.07
2019-03-28T02:52:30.403Z,10.04
2019-03-28T02:55:02.290Z,10.02
2019-03-28T02:57:41.154Z,9.96
2019-03-28T03:00:05.239Z,9.77
2019-03-28T03:02:35.002Z,9.93
2019-03-28T03:05:05.252Z,9.95
2019-03-28T03:07:35.034Z,9.81
2019-03-28T03:10:06.231Z,9.69
2019-03-28T03:12:36.325Z,9.79
2019-03-28T03:15:07.031Z,9.94
2019-03-28T03:17:36.798Z,9.91
2019-03-28T03:20:10.017Z,9.91
2019-03-28T03:22:39.755Z,9.90
2019-03-28T03:25:09.683Z,9.82
2019-03-28T03:27:56.281Z,9.86
2019-03-28T03:30:11.460Z,9.81
2019-03-28T03:32:41.226Z,9.81
2019-03-28T03:35:11.440Z,9.73
2019-03-28T03:37:41.200Z,9.76
2019-03-28T03:40:11.073Z,9.79
2019-03-28T03:42:41.173Z,9.82
2019-03-28T03:45:10.932Z,9.78
2019-03-28T03:47:40.678Z,9.66
2019-03-28T03:50:12.472Z,9.70
2019-03-28T03:52:42.239Z,9.59
2019-03-28T03:55:13.304Z,9.64
2019-03-28T03:57:43.136Z,9.62
2019-03-28T04:00:14.468Z,9.50
2019-03-28T04:02:44.510Z,9.52
2019-03-28T04:05:14.328Z,9.43
2019-03-28T04:07:44.123Z,9.41
2019-03-28T04:10:14.186Z,9.18
2019-03-28T04:12:43.976Z,9.32
2019-03-28T04:15:13.875Z,9.34
2019-03-28T04:17:44.785Z,9.36
2019-03-28T04:20:14.565Z,9.32
2019-03-28T04:22:44.314Z,9.32
2019-03-28T04:25:14.382Z,9.34
2019-03-28T04:27:44.255Z,9.33
2019-03-28T04:30:14.167Z,9.35
2019-03-28T04:32:44.224Z,9.30
2019-03-28T04:35:14.052Z,9.08
2019-03-28T04:37:43.818Z,9.31
2019-03-28T04:40:13.883Z,9.33
2019-03-28T04:42:45.872Z,9.15
2019-03-28T04:45:15.215Z,9.25
2019-03-28T04:47:44.981Z,9.34
2019-03-28T04:50:15.006Z,9.03
2019-03-28T04:52:45.569Z,8.84
2019-03-28T04:55:15.490Z,8.75
2019-03-28T04:57:45.290Z,8.57
2019-03-28T05:00:15.582Z,8.47
2019-03-28T05:02:46.170Z,8.83
2019-03-28T05:05:16.030Z,9.00
2019-03-28T05:07:46.177Z,9.06
2019-03-28T05:10:16.043Z,8.74
2019-03-28T05:12:45.861Z,8.70
2019-03-28T05:15:16.102Z,8.78
2019-03-28T05:17:45.891Z,8.96
2019-03-28T05:20:15.956Z,9.06
2019-03-28T05:22:46.102Z,9.00
2019-03-28T05:25:15.858Z,8.85
2019-03-28T05:27:45.636Z,9.04
2019-03-28T05:30:15.813Z,9.03
2019-03-28T05:32:45.607Z,9.00
2019-03-28T05:35:15.414Z,8.98
2019-03-28T05:37:45.549Z,8.92
2019-03-28T05:40:15.325Z,9.09
2019-03-28T05:42:45.240Z,9.03
2019-03-28T05:45:15.283Z,8.97
2019-03-28T05:47:45.063Z,9.12
2019-03-28T05:50:14.887Z,9.04
2019-03-28T05:52:45.030Z,8.96
2019-03-28T05:55:14.802Z,8.64
2019-03-28T05:57:44.603Z,8.83
2019-03-28T06:00:15.385Z,8.49
2019-03-28T06:02:45.167Z,8.51
2019-03-28T06:05:14.992Z,8.42
2019-03-28T06:07:46.074Z,8.28
2019-03-28T06:10:16.531Z,8.26
2019-03-28T06:12:46.369Z,8.27
2019-03-28T06:15:17.733Z,8.53
2019-03-28T06:17:47.565Z,8.42
2019-03-28T06:20:17.350Z,8.46
2019-03-28T06:22:48.361Z,8.29
2019-03-28T06:25:18.146Z,8.41
2019-03-28T06:27:47.882Z,8.28
2019-03-28T06:30:18.474Z,8.49
2019-03-28T06:32:48.463Z,8.30
2019-03-28T06:35:18.735Z,8.58
2019-03-28T06:37:51.634Z,8.62
2019-03-28T06:40:21.449Z,8.56
2019-03-28T06:42:51.302Z,8.84
2019-03-28T06:45:21.435Z,8.67
2019-03-28T06:47:51.265Z,8.51
2019-03-28T06:50:21.107Z,8.88
2019-03-28T06:52:51.354Z,8.83
2019-03-28T06:55:23.896Z,9.00
2019-03-28T06:57:52.752Z,9.36
2019-03-28T07:00:22.567Z,9.54
2019-03-28T07:02:52.343Z,9.55
2019-03-28T07:05:22.581Z,9.46
2019-03-28T07:07:52.382Z,9.49
2019-03-28T07:10:22.295Z,9.51
2019-03-28T07:12:52.523Z,9.80
2019-03-28T07:15:22.353Z,10.17
2019-03-28T07:17:52.178Z,10.10
2019-03-28T07:20:23.369Z,10.37
2019-03-28T07:22:53.406Z,10.58
2019-03-28T07:25:25.547Z,10.86
2019-03-28T07:27:55.828Z,10.97
2019-03-28T07:30:25.623Z,10.50
2019-03-28T07:32:55.406Z,10.66
2019-03-28T07:35:25.583Z,10.91
2019-03-28T07:37:55.810Z,11.06
2019-03-28T07:40:26.214Z,11.09
2019-03-28T07:42:56.423Z,11.11
2019-03-28T07:45:28.082Z,11.46
2019-03-28T07:48:02.767Z,11.00
2019-03-28T07:50:33.591Z,11.07
2019-03-28T07:53:03.559Z,10.56
2019-03-28T07:55:33.431Z,10.94
2019-03-28T07:58:11.124Z,11.36
2019-03-28T08:00:41.323Z,11.37
2019-03-28T08:03:12.044Z,11.48
2019-03-28T08:05:42.501Z,11.67
2019-03-28T08:08:13.294Z,11.64
2019-03-28T08:10:44.662Z,11.69
2019-03-28T08:13:15.037Z,11.77
2019-03-28T08:15:45.168Z,11.71
2019-03-28T08:18:15.431Z,11.50
2019-03-28T08:20:45.627Z,11.82
2019-03-28T08:23:16.013Z,11.96
2019-03-28T08:25:46.905Z,11.91
2019-03-28T08:28:17.776Z,12.04
2019-03-28T08:30:47.846Z,12.10
2019-03-28T08:33:18.675Z,12.08
2019-03-28T08:35:53.713Z,12.14
2019-03-28T08:38:24.347Z,11.91
2019-03-28T08:40:54.890Z,12.11
2019-03-28T08:43:27.997Z,12.03
2019-03-28T08:45:57.998Z,11.92
2019-03-28T08:48:29.625Z,12.28
2019-03-28T08:51:07.354Z,12.52
2019-03-28T08:53:39.647Z,12.31
2019-03-28T08:56:10.101Z,12.59
2019-03-28T08:58:40.901Z,12.61
2019-03-28T09:01:13.445Z,12.74
2019-03-28T09:03:44.909Z,12.90
2019-03-28T09:06:17.071Z,12.81
2019-03-28T09:08:47.418Z,13.24
2019-03-28T09:11:21.655Z,13.51
2019-03-28T09:13:53.431Z,13.57
2019-03-28T09:16:26.233Z,13.95
2019-03-28T09:18:56.520Z,13.73
2019-03-28T09:21:27.333Z,13.71
2019-03-28T09:23:58.194Z,13.99
2019-03-28T09:26:28.546Z,14.38
2019-03-28T09:28:59.318Z,14.37
2019-03-28T09:31:31.712Z,14.46
2019-03-28T09:34:06.677Z,14.65
2019-03-28T09:36:37.665Z,14.92
2019-03-28T09:39:11.753Z,14.85
2019-03-28T09:41:42.658Z,15.19
2019-03-28T09:44:14.649Z,14.96
2019-03-28T09:46:45.559Z,15.22
2019-03-28T09:49:16.273Z,15.43
2019-03-28T09:51:46.118Z,15.70
2019-03-28T09:54:15.935Z,15.80
2019-03-28T09:56:46.840Z,16.14
2019-03-28T09:59:20.519Z,16.23
2019-03-28T10:01:51.853Z,16.44
2019-03-28T10:04:24.040Z,16.71
2019-03-28T10:06:55.891Z,17.37
2019-03-28T10:09:30.234Z,17.65
2019-03-28T10:12:00.235Z,18.04
2019-03-28T10:14:30.061Z,18.19
2019-03-28T10:16:59.916Z,18.38
2019-03-28T10:19:29.914Z,18.86
2019-03-28T10:22:00.036Z,18.48
2019-03-28T10:24:29.897Z,18.93
2019-03-28T10:26:59.928Z,19.17
2019-03-28T10:29:29.993Z,19.68
2019-03-28T10:31:59.826Z,19.85
2019-03-28T10:34:30.551Z,19.98
2019-03-28T10:37:00.762Z,20.17
2019-03-28T10:39:30.703Z,20.32
2019-03-28T10:42:00.548Z,20.51
2019-03-28T10:44:30.648Z,20.59
2019-03-28T10:47:00.751Z,20.93
2019-03-28T10:49:30.571Z,21.24
2019-03-28T10:52:03.699Z,21.55
2019-03-28T10:54:32.078Z,21.55
2019-03-28T10:57:12.876Z,21.35
2019-03-28T10:59:34.030Z,21.62
2019-03-28T11:02:05.155Z,21.59
2019-03-28T11:04:35.259Z,21.56
2019-03-28T11:07:05.089Z,21.39
2019-03-28T11:09:34.935Z,21.74
2019-03-28T11:12:07.331Z,21.59
2019-03-28T11:14:37.118Z,21.75
2019-03-28T11:17:07.528Z,22.16
2019-03-28T11:19:37.638Z,22.58
2019-03-28T11:22:07.469Z,22.71
2019-03-28T11:24:37.294Z,22.73
2019-03-28T11:27:07.402Z,22.97
2019-03-28T11:29:37.200Z,23.14
2019-03-28T11:32:09.869Z,22.92
2019-03-28T11:34:40.781Z,23.07
2019-03-28T11:37:25.011Z,22.90
2019-03-28T11:39:44.601Z,22.75
2019-03-28T11:42:14.492Z,22.91
2019-03-28T11:44:44.695Z,23.21
2019-03-28T11:47:14.559Z,23.10
2019-03-28T11:49:44.419Z,23.21
2019-03-28T11:52:15.212Z,23.72
2019-03-28T11:54:45.043Z,23.94
2019-03-28T11:57:15.973Z,24.27
2019-03-28T11:59:46.472Z,23.92
2019-03-28T12:02:20.075Z,24.52
2019-03-28T12:04:48.455Z,24.43
2019-03-28T12:07:18.466Z,24.87
2019-03-28T12:09:49.023Z,25.11
2019-03-28T12:12:19.434Z,24.65
2019-03-28T12:14:49.350Z,24.67
2019-03-28T12:17:19.179Z,24.76
2019-03-28T12:19:49.263Z,24.96
2019-03-28T12:22:19.049Z,24.87
2019-03-28T12:24:48.966Z,25.16
2019-03-28T12:27:19.069Z,25.59
2019-03-28T12:29:49.802Z,25.76
2019-03-28T12:32:19.762Z,25.74
2019-03-28T12:34:49.830Z,26.11
2019-03-28T12:37:19.611Z,25.77
2019-03-28T12:39:49.502Z,25.83
2019-03-28T12:42:19.733Z,25.76
2019-03-28T12:44:57.023Z,25.76
2019-03-28T12:47:21.469Z,25.97
2019-03-28T12:49:51.258Z,26.25
2019-03-28T12:52:21.046Z,26.56
2019-03-28T12:54:50.866Z,26.95
2019-03-28T12:57:20.961Z,27.59
2019-03-28T12:59:53.463Z,27.38
2019-03-28T13:02:31.417Z,27.88
2019-03-28T13:04:54.150Z,28.02
2019-03-28T13:07:24.014Z,28.17
2019-03-28T13:09:53.905Z,28.23
2019-03-28T13:12:23.967Z,28.51
2019-03-28T13:14:53.988Z,28.51
2019-03-28T13:17:23.803Z,28.12
2019-03-28T13:19:57.070Z,28.08
2019-03-28T13:22:26.961Z,27.96
2019-03-28T13:24:56.781Z,27.75
2019-03-28T13:27:26.911Z,27.49
2019-03-28T13:29:56.698Z,27.15
2019-03-28T13:32:26.509Z,27.16
2019-03-28T13:34:56.590Z,27.03
2019-03-28T13:37:26.413Z,26.93
2019-03-28T13:39:56.202Z,26.75
2019-03-28T13:42:27.188Z,26.74
2019-03-28T13:44:57.153Z,26.91
2019-03-28T13:47:27.009Z,26.93
2019-03-28T13:49:57.148Z,26.42
2019-03-28T13:52:26.929Z,26.85
2019-03-28T13:54:56.700Z,26.98
2019-03-28T13:57:28.596Z,26.41
2019-03-28T13:59:58.671Z,26.21
2019-03-28T14:02:28.599Z,25.51
2019-03-28T14:04:58.683Z,25.03
2019-03-28T14:07:28.548Z,24.73
2019-03-28T14:09:58.434Z,24.33
2019-03-28T14:12:28.573Z,24.08
2019-03-28T14:14:58.427Z,23.77
2019-03-28T14:17:28.424Z,23.39
2019-03-28T14:19:58.530Z,23.15
2019-03-28T14:22:28.387Z,22.85
2019-03-28T14:24:58.431Z,22.39
2019-03-28T14:27:28.785Z,21.84
2019-03-28T14:29:58.785Z,21.27
2019-03-28T14:32:28.982Z,21.20
2019-03-28T14:34:59.010Z,20.72
2019-03-28T14:37:29.106Z,20.71
2019-03-28T14:39:59.310Z,20.85
2019-03-28T14:42:29.730Z,20.84
2019-03-28T14:45:02.573Z,20.38
2019-03-28T14:47:32.313Z,20.16
2019-03-28T14:50:04.312Z,20.24
2019-03-28T14:52:35.231Z,20.30
2019-03-28T14:55:05.431Z,20.34
2019-03-28T14:57:35.414Z,20.33
2019-03-28T15:00:07.311Z,20.22
2019-03-28T15:02:37.706Z,20.26
2019-03-28T15:05:07.763Z,20.47
2019-03-28T15:07:37.716Z,20.29
2019-03-28T15:10:08.600Z,19.98
2019-03-28T15:12:38.633Z,20.16
2019-03-28T15:15:08.758Z,20.11
2019-03-28T15:17:39.304Z,20.02
2019-03-28T15:20:09.537Z,20.13
2019-03-28T15:22:39.614Z,20.17
2019-03-28T15:25:10.225Z,19.94
2019-03-28T15:27:40.264Z,19.74
2019-03-28T15:30:10.611Z,19.76
2019-03-28T15:32:40.910Z,19.94
2019-03-28T15:35:13.081Z,20.19
2019-03-28T15:37:43.249Z,20.28
2019-03-28T15:40:13.946Z,20.15
2019-03-28T15:42:44.213Z,20.63
2019-03-28T15:45:15.314Z,20.67
2019-03-28T15:47:52.044Z,20.80
2019-03-28T15:50:21.935Z,20.94
2019-03-28T15:52:52.257Z,21.09
2019-03-28T15:55:23.249Z,21.41
2019-03-28T15:57:53.726Z,21.34
2019-03-28T16:00:24.424Z,21.29
2019-03-28T16:02:54.775Z,21.10
2019-03-28T16:05:25.154Z,20.83
2019-03-28T16:07:55.615Z,20.88
2019-03-28T16:10:25.753Z,20.94
2019-03-28T16:12:56.222Z,20.90
2019-03-28T16:15:26.226Z,20.68
2019-03-28T16:17:57.700Z,20.62
2019-03-28T16:20:28.195Z,20.66
2019-03-28T16:22:58.579Z,20.62
2019-03-28T16:25:28.768Z,20.49
2019-03-28T16:27:58.801Z,20.12
2019-03-28T16:30:40.653Z,19.83
2019-03-28T16:33:11.346Z,19.70
2019-03-28T16:35:41.495Z,19.35
2019-03-28T16:38:11.742Z,19.19
2019-03-28T16:40:41.958Z,19.04
2019-03-28T16:43:12.425Z,18.93
2019-03-28T16:45:43.225Z,18.70
2019-03-28T16:48:13.582Z,18.53
2019-03-28T16:50:44.694Z,18.69
2019-03-28T16:53:15.343Z,18.85
2019-03-28T16:55:47.287Z,18.69
2019-03-28T16:58:19.221Z,18.68
2019-03-28T17:00:50.977Z,18.43
2019-03-28T17:03:22.565Z,18.39
2019-03-28T17:05:55.972Z,18.24
2019-03-28T17:08:27.313Z,18.09
2019-03-28T17:10:57.816Z,18.21
2019-03-28T17:13:28.257Z,18.15
2019-03-28T17:15:58.575Z,18.19
2019-03-28T17:18:28.923Z,18.29
2019-03-28T17:20:59.324Z,18.16
2019-03-28T17:23:29.778Z,18.27
2019-03-28T17:25:59.950Z,18.31
2019-03-28T17:28:30.314Z,18.22
2019-03-28T17:31:01.316Z,18.38
2019-03-28T17:33:32.274Z,18.36
2019-03-28T17:36:04.209Z,18.25
2019-03-28T17:38:34.783Z,18.43
2019-03-28T17:41:06.673Z,18.30
2019-03-28T17:43:37.245Z,18.05
2019-03-28T17:46:12.528Z,18.01
2019-03-28T17:48:42.826Z,18.07
2019-03-28T17:51:14.643Z,17.88
2019-03-28T17:53:45.572Z,17.70
2019-03-28T17:56:16.045Z,17.37
2019-03-28T17:58:46.798Z,17.28
2019-03-28T18:01:17.056Z,17.38
2019-03-28T18:03:47.390Z,17.30
2019-03-28T18:06:18.197Z,17.20
2019-03-28T18:08:48.549Z,17.09
2019-03-28T18:11:19.090Z,17.14
2019-03-28T18:13:49.852Z,17.08
2019-03-28T18:16:20.257Z,16.98
2019-03-28T18:18:50.995Z,16.87
2019-03-28T18:21:21.349Z,16.86
2019-03-28T18:23:51.671Z,16.70
2019-03-28T18:26:22.046Z,16.77
2019-03-28T18:28:52.582Z,16.69
2019-03-28T18:31:23.291Z,16.58
2019-03-28T18:33:53.671Z,16.65
2019-03-28T18:36:26.240Z,16.77
2019-03-28T18:38:57.624Z,16.49
2019-03-28T18:41:30.036Z,16.38
2019-03-28T18:44:00.310Z,16.55
2019-03-28T18:46:31.014Z,16.37
2019-03-28T18:49:01.291Z,16.55
2019-03-28T18:51:31.669Z,16.57
2019-03-28T18:54:03.653Z,16.65
2019-03-28T18:56:35.126Z,16.65
2019-03-28T18:59:05.527Z,16.65
2019-03-28T19:01:36.199Z,16.59
2019-03-28T19:04:09.558Z,16.09
2019-03-28T19:06:42.203Z,16.30
2019-03-28T19:09:12.544Z,16.42
2019-03-28T19:11:42.847Z,16.36
2019-03-28T19:14:13.570Z,16.38
2019-03-28T19:16:44.053Z,16.37
2019-03-28T19:19:14.498Z,16.36
2019-03-28T19:21:45.204Z,16.39
2019-03-28T19:24:17.457Z,16.15
2019-03-28T19:26:48.082Z,16.13
2019-03-28T19:29:18.997Z,15.95
2019-03-28T19:31:49.233Z,15.81
2019-03-28T19:34:19.512Z,15.93
2019-03-28T19:36:50.599Z,15.90
2019-03-28T19:39:29.516Z,15.82
2019-03-28T19:42:00.061Z,15.81
2019-03-28T19:44:31.561Z,15.75
2019-03-28T19:47:02.326Z,15.82
2019-03-28T19:49:32.828Z,15.60
2019-03-28T19:52:08.320Z,15.63
2019-03-28T19:54:40.286Z,15.90
2019-03-28T19:57:13.081Z,15.92
2019-03-28T19:59:44.978Z,15.88
2019-03-28T20:02:18.626Z,16.03
2019-03-28T20:04:49.755Z,16.07
2019-03-28T20:07:23.087Z,15.71
2019-03-28T20:09:53.458Z,15.76
2019-03-28T20:12:23.863Z,15.59
2019-03-28T20:14:54.446Z,15.49
2019-03-28T20:17:24.715Z,15.46
2019-03-28T20:19:56.377Z,15.26
2019-03-28T20:22:26.931Z,15.37
2019-03-28T20:24:58.776Z,15.33
2019-03-28T20:27:29.248Z,15.26
2019-03-28T20:30:00.944Z,15.34
2019-03-28T20:32:31.544Z,15.34
2019-03-28T20:35:03.481Z,15.25
2019-03-28T20:37:34.172Z,15.20
2019-03-28T20:40:07.103Z,15.12
2019-03-28T20:42:37.437Z,15.02
2019-03-28T20:45:07.939Z,15.04
2019-03-28T20:47:38.385Z,14.84
2019-03-28T20:50:09.522Z,14.82
2019-03-28T20:52:39.748Z,15.08
2019-03-28T20:55:10.439Z,14.93
2019-03-28T20:57:40.740Z,14.94
2019-03-28T21:00:13.074Z,14.87
2019-03-28T21:02:45.378Z,14.98
2019-03-28T21:05:41.784Z,14.93
2019-03-28T21:08:12.819Z,14.90
2019-03-28T21:10:43.451Z,14.82
2019-03-28T21:13:13.734Z,14.96
2019-03-28T21:15:44.177Z,14.97
2019-03-28T21:18:15.407Z,14.86
2019-03-28T21:20:46.085Z,14.90
2019-03-28T21:23:16.441Z,14.82
2019-03-28T21:25:46.925Z,14.75
2019-03-28T21:28:17.234Z,14.71
2019-03-28T21:30:49.564Z,14.86
2019-03-28T21:33:20.504Z,14.84
2019-03-28T21:35:53.548Z,14.85
2019-03-28T21:38:27.939Z,14.94
2019-03-28T21:40:59.588Z,14.90
2019-03-28T21:43:30.835Z,15.02
2019-03-28T21:46:03.707Z,15.16
2019-03-28T21:48:33.793Z,15.05
2019-03-28T21:51:04.178Z,15.12
2019-03-28T21:53:35.180Z,15.18
2019-03-28T21:56:08.477Z,15.16
2019-03-28T21:58:38.620Z,15.25
2019-03-28T22:01:08.729Z,15.12
2019-03-28T22:03:41.135Z,15.14
2019-03-28T22:06:11.548Z,15.07
2019-03-28T22:08:41.517Z,15.15
2019-03-28T22:11:11.330Z,15.10
2019-03-28T22:13:41.195Z,15.01
2019-03-28T22:16:11.062Z,15.10
2019-03-28T22:18:41.221Z,15.07
2019-03-28T22:21:11.033Z,15.09
2019-03-28T22:23:40.842Z,15.01
2019-03-28T22:26:11.057Z,15.01
2019-03-28T22:28:40.842Z,14.97
2019-03-28T22:31:10.663Z,14.86
2019-03-28T22:33:41.806Z,14.60
2019-03-28T22:36:11.671Z,14.36
2019-03-28T22:38:41.513Z,14.34
2019-03-28T22:41:11.348Z,14.34
2019-03-28T22:43:41.146Z,14.26
2019-03-28T22:46:11.145Z,14.26
2019-03-28T22:48:44.307Z,14.25
2019-03-28T22:51:12.784Z,14.11
2019-03-28T22:53:42.594Z,14.10
2019-03-28T22:56:12.717Z,14.06
2019-03-28T22:58:42.490Z,14.00
2019-03-28T23:01:12.376Z,14.02
2019-03-28T23:03:42.596Z,13.71
2019-03-28T23:06:13.267Z,13.91
2019-03-28T23:08:43.009Z,14.01
2019-03-28T23:11:13.863Z,13.99
2019-03-28T23:13:43.697Z,13.83
2019-03-28T23:16:13.505Z,13.95
2019-03-28T23:18:43.373Z,13.82
2019-03-28T23:21:13.235Z,13.86
2019-03-28T23:23:43.097Z,13.86
2019-03-28T23:26:13.209Z,14.04
2019-03-28T23:28:42.968Z,14.15
2019-03-28T23:31:12.724Z,14.24
2019-03-28T23:33:42.588Z,14.22
2019-03-28T23:36:12.347Z,14.41
2019-03-28T23:38:42.363Z,14.40
2019-03-28T23:41:12.451Z,14.33
2019-03-28T23:43:42.216Z,14.47
2019-03-28T23:46:12.082Z,14.44
2019-03-28T23:48:42.582Z,14.22
2019-03-28T23:51:12.362Z,14.34
2019-03-28T23:53:42.149Z,14.44
2019-03-28T23:56:12.202Z,14.40
2019-03-28T23:58:41.959Z,14.48
